Time;durP1;ratioP1;P1;durP2;ratioP2;P2;SDS_P1;SDS_P2;PMS_P1;PMS_P2;Temp;Humidity;BMP_temperature;BMP_pressure;BME280_temperature;BME280_humidity;BME280_pressure;Samples;Min_cycle;Max_cycle;Signal;HPM_P1;HPM_P2
2023/08/30 00:02:05;;;;;;;;;8.00;7.67;;;;;;;;5035531;28;8824;-61
2023/08/30 00:04:30;;;;;;;;;6.00;5.67;;;;;;;;5034900;28;8835;-63
2023/08/30 00:06:55;;;;;;;;;8.00;8.00;;;;;;;;5034461;28;8808;-63
2023/08/30 00:09:20;;;;;;;;;7.00;6.00;;;;;;;;5015778;28;8862;-61
2023/08/30 00:11:46;;;;;;;;;7.00;7.00;;;;;;;;5033312;28;8955;-62
2023/08/30 00:14:11;;;;;;;;;5.00;5.00;;;;;;;;5035801;28;8843;-62
2023/08/30 00:16:38;;;;;;;;;6.33;6.33;;;;;;;;5034672;28;8817;-64
2023/08/30 00:19:03;;;;;;;;;7.00;7.00;;;;;;;;5022708;28;8883;-63
2023/08/30 00:21:28;;;;;;;;;7.00;6.33;;;;;;;;5035158;28;9379;-63
2023/08/30 00:23:54;;;;;;;;;8.33;7.00;;;;;;;;5034822;28;8909;-63
2023/08/30 00:26:19;;;;;;;;;8.00;8.00;;;;;;;;5034826;28;8818;-63
2023/08/30 00:28:44;;;;;;;;;6.33;6.33;;;;;;;;5037308;28;9840;-63
2023/08/30 00:31:09;;;;;;;;;6.33;6.00;;;;;;;;5035623;28;8815;-61
2023/08/30 00:33:34;;;;;;;;;9.33;9.33;;;;;;;;5035663;28;8864;-65
2023/08/30 00:36:00;;;;;;;;;7.67;7.67;;;;;;;;5035289;28;8921;-64
2023/08/30 00:38:26;;;;;;;;;8.00;6.33;;;;;;;;5032893;28;8815;-64
2023/08/30 00:40:52;;;;;;;;;7.00;6.67;;;;;;;;5032636;28;8826;-64
2023/08/30 00:43:18;;;;;;;;;7.33;7.00;;;;;;;;5034864;28;9831;-65
2023/08/30 00:45:43;;;;;;;;;8.00;7.00;;;;;;;;5034540;28;8941;-65
2023/08/30 00:48:08;;;;;;;;;7.00;7.00;;;;;;;;5035222;28;8788;-65
2023/08/30 00:50:34;;;;;;;;;7.67;7.67;;;;;;;;5035585;28;8811;-65
2023/08/30 00:52:59;;;;;;;;;7.33;7.33;;;;;;;;5035310;28;8816;-65
2023/08/30 00:55:24;;;;;;;;;5.33;5.00;;;;;;;;5034634;28;8813;-65
2023/08/30 00:57:49;;;;;;;;;6.00;6.00;;;;;;;;5034365;28;8808;-65
2023/08/30 01:00:15;;;;;;;;;7.00;7.00;;;;;;;;5034297;28;8819;-63
2023/08/30 01:02:40;;;;;;;;;6.33;6.33;;;;;;;;5034892;28;8843;-63
2023/08/30 01:05:05;;;;;;;;;6.33;6.00;;;;;;;;5017697;28;8836;-65
2023/08/30 01:07:30;;;;;;;;;7.00;7.00;;;;;;;;5012477;28;9856;-65
2023/08/30 01:09:56;;;;;;;;;9.00;9.00;;;;;;;;5034551;28;8935;-64
2023/08/30 01:12:36;;;;;;;;;6.67;6.67;;;;;;;;5033766;28;8935;-64
2023/08/30 01:15:15;;;;;;;;;6.00;5.00;;;;;;;;5035132;28;9380;-64
2023/08/30 01:17:42;;;;;;;;;6.00;5.67;;;;;;;;5013551;28;9248;-64
2023/08/30 01:20:14;;;;;;;;;5.00;5.00;;;;;;;;5039203;28;9489;-64
2023/08/30 01:22:58;;;;;;;;;6.00;6.00;;;;;;;;5038032;28;10189;-64
2023/08/30 01:25:29;;;;;;;;;4.00;4.00;;;;;;;;5040105;28;9404;-63
2023/08/30 01:27:56;;;;;;;;;5.00;5.00;;;;;;;;5037649;28;9199;-63
2023/08/30 01:30:22;;;;;;;;;7.00;6.00;;;;;;;;5020887;28;9246;-64
2023/08/30 01:32:48;;;;;;;;;4.67;4.67;;;;;;;;5037229;28;9132;-64
2023/08/30 01:35:19;;;;;;;;;3.33;3.00;;;;;;;;5025396;28;11493;-63
2023/08/30 01:37:47;;;;;;;;;4.33;4.33;;;;;;;;5036492;28;9465;-64
2023/08/30 01:40:14;;;;;;;;;6.00;6.00;;;;;;;;5038814;28;9189;-65
2023/08/30 01:42:40;;;;;;;;;5.67;5.67;;;;;;;;5031381;28;9270;-64
2023/08/30 01:45:08;;;;;;;;;5.67;5.00;;;;;;;;5036450;28;9312;-65
2023/08/30 01:47:34;;;;;;;;;7.67;7.67;;;;;;;;5031374;28;9185;-64
2023/08/30 01:49:59;;;;;;;;;7.00;6.00;;;;;;;;5032950;28;9509;-64
2023/08/30 01:52:25;;;;;;;;;9.00;6.00;;;;;;;;5039636;28;9383;-64
2023/08/30 01:54:52;;;;;;;;;6.33;6.33;;;;;;;;5039301;28;8774;-64
2023/08/30 01:57:17;;;;;;;;;5.00;5.00;;;;;;;;5025649;28;9308;-64
2023/08/30 01:59:42;;;;;;;;;6.67;6.00;;;;;;;;5037532;28;9333;-64
2023/08/30 02:02:07;;;;;;;;;5.33;5.33;;;;;;;;5037477;28;9570;-64
2023/08/30 02:04:32;;;;;;;;;6.67;6.67;;;;;;;;5037733;28;8832;-64
2023/08/30 02:07:00;;;;;;;;;7.00;6.00;;;;;;;;5037558;28;8816;-65
2023/08/30 02:09:50;;;;;;;;;5.00;5.00;;;;;;;;5036929;28;8903;-63
2023/08/30 02:12:17;;;;;;;;;6.00;6.00;;;;;;;;5017444;28;9285;-63
2023/08/30 02:14:47;;;;;;;;;6.33;6.33;;;;;;;;5036918;28;9170;-64
2023/08/30 02:17:14;;;;;;;;;5.00;5.00;;;;;;;;5037977;28;9236;-65
2023/08/30 02:19:39;;;;;;;;;6.33;6.00;;;;;;;;5037156;28;9438;-63
2023/08/30 02:22:05;;;;;;;;;7.00;7.00;;;;;;;;5022655;28;9462;-64
2023/08/30 02:24:30;;;;;;;;;5.00;5.00;;;;;;;;5036086;28;8972;-64
2023/08/30 02:26:55;;;;;;;;;4.33;4.33;;;;;;;;5037590;28;8862;-64
2023/08/30 02:29:20;;;;;;;;;6.00;6.00;;;;;;;;5019902;28;8904;-65
2023/08/30 02:31:45;;;;;;;;;5.00;4.00;;;;;;;;5035850;28;8785;-64
2023/08/30 02:34:11;;;;;;;;;6.00;5.00;;;;;;;;5037884;28;8945;-63
2023/08/30 02:36:36;;;;;;;;;4.00;4.00;;;;;;;;5038032;28;9655;-63
2023/08/30 02:39:01;;;;;;;;;6.00;5.00;;;;;;;;5036705;28;8814;-62
2023/08/30 02:41:26;;;;;;;;;5.33;5.00;;;;;;;;5037353;28;8808;-62
2023/08/30 02:43:52;;;;;;;;;5.00;5.00;;;;;;;;5037306;28;8809;-64
2023/08/30 02:46:17;;;;;;;;;4.00;3.67;;;;;;;;5038723;28;8828;-62
2023/08/30 02:48:42;;;;;;;;;7.00;7.00;;;;;;;;5036508;28;8803;-64
2023/08/30 02:51:07;;;;;;;;;6.00;6.00;;;;;;;;5035317;28;8857;-65
2023/08/30 02:53:32;;;;;;;;;5.67;5.67;;;;;;;;5035323;28;9583;-64
2023/08/30 02:55:58;;;;;;;;;5.00;5.00;;;;;;;;5039472;28;9671;-64
2023/08/30 02:58:23;;;;;;;;;5.33;5.00;;;;;;;;5035341;28;8878;-64
2023/08/30 03:00:49;;;;;;;;;5.00;5.00;;;;;;;;5036831;28;8925;-63
2023/08/30 03:03:14;;;;;;;;;6.33;6.33;;;;;;;;5036745;28;8832;-62
2023/08/30 03:05:40;;;;;;;;;5.00;5.00;;;;;;;;5036739;28;8823;-63
2023/08/30 03:08:05;;;;;;;;;5.00;5.00;;;;;;;;5034363;28;9130;-62
2023/08/30 03:10:32;;;;;;;;;4.00;4.00;;;;;;;;5034715;28;11441;-63
2023/08/30 03:12:57;;;;;;;;;4.00;4.00;;;;;;;;5017657;28;8847;-62
2023/08/30 03:15:22;;;;;;;;;5.00;5.00;;;;;;;;5034222;28;9376;-63
2023/08/30 03:17:48;;;;;;;;;4.00;4.00;;;;;;;;5035077;28;8814;-62
2023/08/30 03:20:14;;;;;;;;;5.00;5.00;;;;;;;;5035404;28;9539;-62
2023/08/30 03:22:39;;;;;;;;;4.00;4.00;;;;;;;;5018772;28;9085;-62
2023/08/30 03:25:05;;;;;;;;;4.33;3.67;;;;;;;;5035776;28;9812;-63
2023/08/30 03:27:32;;;;;;;;;4.00;4.00;;;;;;;;5036558;28;8798;-63
2023/08/30 03:29:57;;;;;;;;;4.00;4.00;;;;;;;;5013631;28;9578;-64
2023/08/30 03:32:22;;;;;;;;;4.00;4.00;;;;;;;;5035088;28;8966;-63
2023/08/30 03:34:47;;;;;;;;;5.00;4.00;;;;;;;;5011762;28;8812;-65
2023/08/30 03:37:14;;;;;;;;;3.67;3.67;;;;;;;;5034360;28;8815;-64
2023/08/30 03:39:39;;;;;;;;;5.00;5.00;;;;;;;;5010668;28;8839;-64
2023/08/30 03:42:04;;;;;;;;;4.67;4.67;;;;;;;;5012839;28;9140;-63
2023/08/30 03:44:29;;;;;;;;;3.00;3.00;;;;;;;;5036287;28;8823;-63
2023/08/30 03:46:56;;;;;;;;;7.50;7.50;;;;;;;;5034484;28;8795;-63
2023/08/30 03:49:21;;;;;;;;;5.00;4.00;;;;;;;;5035516;28;8873;-62
2023/08/30 03:51:47;;;;;;;;;4.00;4.00;;;;;;;;5036176;28;9150;-64
2023/08/30 03:54:16;;;;;;;;;3.67;3.67;;;;;;;;5035658;28;9478;-63
2023/08/30 03:56:41;;;;;;;;;4.33;4.33;;;;;;;;5033972;28;8823;-64
2023/08/30 03:59:06;;;;;;;;;3.00;3.00;;;;;;;;5018000;28;8940;-64
2023/08/30 04:01:31;;;;;;;;;4.00;4.00;;;;;;;;5033845;28;8819;-63
2023/08/30 04:03:56;;;;;;;;;5.00;4.00;;;;;;;;5022367;28;8838;-63
2023/08/30 04:06:22;;;;;;;;;2.67;2.67;;;;;;;;5012948;28;9629;-64
2023/08/30 04:08:48;;;;;;;;;4.33;4.00;;;;;;;;5034474;28;8811;-63
2023/08/30 04:11:13;;;;;;;;;5.00;4.00;;;;;;;;5035779;28;9203;-64
2023/08/30 04:13:38;;;;;;;;;5.00;5.00;;;;;;;;5035486;28;8856;-63
2023/08/30 04:16:03;;;;;;;;;5.67;5.33;;;;;;;;5036629;28;8809;-64
2023/08/30 04:18:29;;;;;;;;;7.00;4.00;;;;;;;;5018709;28;8952;-63
2023/08/30 04:20:54;;;;;;;;;2.67;2.33;;;;;;;;5036048;28;8793;-63
2023/08/30 04:23:19;;;;;;;;;4.00;4.00;;;;;;;;5034611;28;9299;-63
2023/08/30 04:25:44;;;;;;;;;2.67;2.67;;;;;;;;5036258;28;8836;-63
2023/08/30 04:28:10;;;;;;;;;4.00;4.00;;;;;;;;5036136;28;8795;-64
2023/08/30 04:30:35;;;;;;;;;6.00;5.00;;;;;;;;5034530;28;8876;-63
2023/08/30 04:33:02;;;;;;;;;4.00;4.00;;;;;;;;5036703;28;9353;-64
2023/08/30 04:35:27;;;;;;;;;4.67;4.67;;;;;;;;5034962;28;8789;-64
2023/08/30 04:37:53;;;;;;;;;5.00;5.00;;;;;;;;5022368;28;9269;-65
2023/08/30 04:40:18;;;;;;;;;3.00;3.00;;;;;;;;5017871;28;8810;-63
2023/08/30 04:42:43;;;;;;;;;4.67;4.67;;;;;;;;5035440;28;8775;-63
2023/08/30 04:45:09;;;;;;;;;5.00;5.00;;;;;;;;5033583;28;8840;-63
2023/08/30 04:47:35;;;;;;;;;4.33;4.33;;;;;;;;5016767;28;8809;-64
2023/08/30 04:50:00;;;;;;;;;4.00;3.67;;;;;;;;5034029;28;9148;-64
2023/08/30 04:52:25;;;;;;;;;5.33;5.00;;;;;;;;5033551;28;8830;-64
2023/08/30 04:54:51;;;;;;;;;4.67;4.00;;;;;;;;5038126;28;9573;-65
2023/08/30 04:57:17;;;;;;;;;5.00;4.67;;;;;;;;5037476;28;8806;-65
2023/08/30 04:59:42;;;;;;;;;3.00;2.33;;;;;;;;5034751;28;9689;-65
2023/08/30 05:02:08;;;;;;;;;6.33;4.67;;;;;;;;5031998;28;9746;-65
2023/08/30 05:04:33;;;;;;;;;4.00;4.00;;;;;;;;5038209;28;8810;-65
2023/08/30 05:06:58;;;;;;;;;5.00;5.00;;;;;;;;5037871;28;8947;-64
2023/08/30 05:09:24;;;;;;;;;5.33;5.33;;;;;;;;5037197;28;8802;-64
2023/08/30 05:11:53;;;;;;;;;4.00;4.00;;;;;;;;5036263;28;8767;-65
2023/08/30 05:14:19;;;;;;;;;5.00;5.00;;;;;;;;5037515;28;9326;-65
2023/08/30 05:16:44;;;;;;;;;5.00;4.33;;;;;;;;5008663;28;9349;-64
2023/08/30 05:19:09;;;;;;;;;4.00;4.00;;;;;;;;5038471;28;8804;-64
2023/08/30 05:21:34;;;;;;;;;5.67;5.00;;;;;;;;5037499;28;8941;-65
2023/08/30 05:24:00;;;;;;;;;8.67;7.00;;;;;;;;5038058;28;9041;-65
2023/08/30 05:26:25;;;;;;;;;9.67;9.33;;;;;;;;5019424;28;8850;-65
2023/08/30 05:28:50;;;;;;;;;6.00;5.67;;;;;;;;5013120;28;8809;-65
2023/08/30 05:31:15;;;;;;;;;5.33;5.00;;;;;;;;5036187;28;9521;-65
2023/08/30 05:33:40;;;;;;;;;5.00;5.00;;;;;;;;5036618;28;8849;-64
2023/08/30 05:36:06;;;;;;;;;5.67;4.00;;;;;;;;5036296;28;8811;-64
2023/08/30 05:38:31;;;;;;;;;6.00;6.00;;;;;;;;5016741;28;10326;-65
2023/08/30 05:40:56;;;;;;;;;4.00;4.00;;;;;;;;5017894;28;9602;-65
2023/08/30 05:43:21;;;;;;;;;5.33;5.33;;;;;;;;5015028;28;8806;-64
2023/08/30 05:45:47;;;;;;;;;5.00;4.33;;;;;;;;5016202;28;8863;-65
2023/08/30 05:48:12;;;;;;;;;8.33;7.67;;;;;;;;5016850;28;8801;-64
2023/08/30 05:50:37;;;;;;;;;6.00;6.00;;;;;;;;5016489;28;8906;-64
2023/08/30 05:53:03;;;;;;;;;6.67;6.33;;;;;;;;5015121;28;8802;-64
2023/08/30 05:55:29;;;;;;;;;5.00;5.00;;;;;;;;5016189;28;8837;-64
2023/08/30 05:57:54;;;;;;;;;1.67;1.33;;;;;;;;5017215;28;9293;-65
2023/08/30 06:00:20;;;;;;;;;6.00;6.00;;;;;;;;5015148;28;9127;-64
2023/08/30 06:02:45;;;;;;;;;6.00;6.00;;;;;;;;5015843;28;9332;-64
2023/08/30 06:05:10;;;;;;;;;6.00;6.00;;;;;;;;5031188;28;9655;-64
2023/08/30 06:07:36;;;;;;;;;6.00;6.00;;;;;;;;5016569;28;8826;-65
2023/08/30 06:10:01;;;;;;;;;6.00;5.33;;;;;;;;5031323;28;9670;-65
2023/08/30 06:12:26;;;;;;;;;4.00;4.00;;;;;;;;5015712;28;8914;-65
2023/08/30 06:14:52;;;;;;;;;5.00;5.00;;;;;;;;5016529;28;8815;-64
2023/08/30 06:17:20;;;;;;;;;6.00;6.00;;;;;;;;5015987;28;8853;-64
2023/08/30 06:19:46;;;;;;;;;5.33;5.33;;;;;;;;5016394;28;8801;-65
2023/08/30 06:22:12;;;;;;;;;6.00;6.00;;;;;;;;5032977;28;9969;-64
2023/08/30 06:24:37;;;;;;;;;6.67;5.33;;;;;;;;5015576;28;8821;-64
2023/08/30 06:27:02;;;;;;;;;6.67;6.00;;;;;;;;5016002;28;8830;-65
2023/08/30 06:29:27;;;;;;;;;7.00;6.00;;;;;;;;5014997;28;9498;-64
2023/08/30 06:31:53;;;;;;;;;8.67;8.00;;;;;;;;5014560;28;8817;-64
2023/08/30 06:34:18;;;;;;;;;6.00;5.33;;;;;;;;5015408;28;8904;-64
2023/08/30 06:36:43;;;;;;;;;5.33;5.33;;;;;;;;5013785;28;8821;-65
2023/08/30 06:39:08;;;;;;;;;5.00;5.00;;;;;;;;5026364;28;8848;-64
2023/08/30 06:41:33;;;;;;;;;6.00;5.00;;;;;;;;5034930;28;9537;-64
2023/08/30 06:43:59;;;;;;;;;3.00;3.00;;;;;;;;5033881;28;8976;-64
2023/08/30 06:46:24;;;;;;;;;6.67;5.67;;;;;;;;5033575;28;8866;-64
2023/08/30 06:48:49;;;;;;;;;6.33;6.33;;;;;;;;5036785;28;8778;-64
2023/08/30 06:51:14;;;;;;;;;7.00;5.33;;;;;;;;5033560;28;8825;-65
2023/08/30 06:53:39;;;;;;;;;6.00;6.00;;;;;;;;5035336;28;8816;-64
2023/08/30 06:56:05;;;;;;;;;6.00;5.00;;;;;;;;5035501;28;8864;-64
2023/08/30 06:58:30;;;;;;;;;6.00;6.00;;;;;;;;5034935;28;8815;-64
2023/08/30 07:00:56;;;;;;;;;5.00;5.00;;;;;;;;5034749;28;9036;-64
2023/08/30 07:03:22;;;;;;;;;3.00;3.00;;;;;;;;5034896;28;8781;-64
2023/08/30 07:05:47;;;;;;;;;5.00;4.00;;;;;;;;5033304;28;9180;-65
2023/08/30 07:08:13;;;;;;;;;7.67;7.67;;;;;;;;5034419;28;8915;-64
2023/08/30 07:10:38;;;;;;;;;5.67;5.67;;;;;;;;5035951;28;8804;-63
2023/08/30 07:13:10;;;;;;;;;7.00;7.00;;;;;;;;5035284;28;9301;-64
2023/08/30 07:15:35;;;;;;;;;4.67;4.00;;;;;;;;5033452;28;8791;-64
2023/08/30 07:18:00;;;;;;;;;4.00;4.00;;;;;;;;5011316;28;9148;-65
2023/08/30 07:20:26;;;;;;;;;5.00;4.00;;;;;;;;5035580;28;8806;-70
2023/08/30 07:22:51;;;;;;;;;5.00;4.00;;;;;;;;5035505;28;8800;-70
2023/08/30 07:25:16;;;;;;;;;3.33;3.33;;;;;;;;5035229;28;9552;-70
2023/08/30 07:27:41;;;;;;;;;2.00;2.00;;;;;;;;5015386;28;8952;-70
2023/08/30 07:30:07;;;;;;;;;4.00;4.00;;;;;;;;5035717;28;8930;-71
2023/08/30 07:32:32;;;;;;;;;3.00;3.00;;;;;;;;5034370;28;8798;-70
2023/08/30 07:34:57;;;;;;;;;4.67;4.67;;;;;;;;5036131;28;8820;-70
2023/08/30 07:37:23;;;;;;;;;6.00;4.33;;;;;;;;5034441;28;8804;-70
2023/08/30 07:39:48;;;;;;;;;4.00;4.00;;;;;;;;5034518;28;8806;-71
2023/08/30 07:42:16;;;;;;;;;4.00;3.33;;;;;;;;5033685;28;8795;-71
2023/08/30 07:44:41;;;;;;;;;4.00;3.67;;;;;;;;5032920;28;8757;-71
2023/08/30 07:47:07;;;;;;;;;3.67;3.67;;;;;;;;5034902;28;9161;-70
2023/08/30 07:49:32;;;;;;;;;2.67;2.67;;;;;;;;5034269;28;8836;-70
2023/08/30 07:51:57;;;;;;;;;4.00;4.00;;;;;;;;5034357;28;8890;-71
2023/08/30 07:54:22;;;;;;;;;3.00;3.00;;;;;;;;5034242;28;8804;-71
2023/08/30 07:56:47;;;;;;;;;2.00;2.00;;;;;;;;5036637;28;8873;-71
2023/08/30 07:59:13;;;;;;;;;3.00;3.00;;;;;;;;5036137;28;8808;-71
2023/08/30 08:01:38;;;;;;;;;3.00;3.00;;;;;;;;5032556;28;9641;-71
2023/08/30 08:04:03;;;;;;;;;6.00;5.67;;;;;;;;5033958;28;8875;-71
2023/08/30 08:06:28;;;;;;;;;4.00;4.00;;;;;;;;5033048;28;8839;-72
2023/08/30 08:08:53;;;;;;;;;3.67;3.33;;;;;;;;5034209;28;8848;-71
2023/08/30 08:11:19;;;;;;;;;3.67;3.67;;;;;;;;5034456;28;8897;-71
2023/08/30 08:13:44;;;;;;;;;4.00;4.00;;;;;;;;5029002;28;9577;-71
2023/08/30 08:16:09;;;;;;;;;3.00;3.00;;;;;;;;5033761;28;8834;-71
2023/08/30 08:18:34;;;;;;;;;2.33;2.33;;;;;;;;5035455;28;9551;-71
2023/08/30 08:20:59;;;;;;;;;4.00;3.00;;;;;;;;5035435;28;8965;-71
2023/08/30 08:23:25;;;;;;;;;3.00;3.00;;;;;;;;5033506;28;8876;-71
2023/08/30 08:25:56;;;;;;;;;4.00;4.00;;;;;;;;5035055;28;8812;-71
2023/08/30 08:28:21;;;;;;;;;5.00;5.00;;;;;;;;5016660;28;8929;-72
2023/08/30 08:30:50;;;;;;;;;20.00;17.33;;;;;;;;5036157;28;9119;-71
2023/08/30 08:33:17;;;;;;;;;4.00;4.00;;;;;;;;5034689;28;8841;-71
2023/08/30 08:35:42;;;;;;;;;7.67;5.67;;;;;;;;5035378;28;24376;-70
2023/08/30 08:38:07;;;;;;;;;4.33;3.00;;;;;;;;5034320;28;9701;-70
2023/08/30 08:40:36;;;;;;;;;1.67;1.67;;;;;;;;5011199;28;42254;-70
2023/08/30 08:43:02;;;;;;;;;5.33;5.00;;;;;;;;5009595;28;8810;-70
2023/08/30 08:45:27;;;;;;;;;4.33;3.33;;;;;;;;5024377;28;31376;-70
2023/08/30 08:47:54;;;;;;;;;3.00;3.00;;;;;;;;5012363;28;32010;-70
2023/08/30 08:50:19;;;;;;;;;3.00;2.33;;;;;;;;5025964;28;31996;-69
2023/08/30 08:52:45;;;;;;;;;2.67;2.00;;;;;;;;5033889;28;10398;-70
2023/08/30 08:55:11;;;;;;;;;3.75;3.75;;;;;;;;5033637;28;8792;-70
2023/08/30 08:57:37;;;;;;;;;5.00;5.00;;;;;;;;4999475;28;31388;-70
2023/08/30 09:00:03;;;;;;;;;4.67;3.67;;;;;;;;5012423;28;32131;-70
2023/08/30 09:02:29;;;;;;;;;3.33;3.00;;;;;;;;5010519;28;34244;-70
2023/08/30 09:04:54;;;;;;;;;4.00;4.00;;;;;;;;5015830;28;32134;-69
2023/08/30 09:07:19;;;;;;;;;4.00;3.00;;;;;;;;5016762;28;8854;-68
2023/08/30 09:09:45;;;;;;;;;3.00;3.00;;;;;;;;5034513;28;9590;-70
2023/08/30 09:12:10;;;;;;;;;2.67;2.67;;;;;;;;5034120;28;8877;-74
2023/08/30 09:14:35;;;;;;;;;6.00;4.00;;;;;;;;5005749;28;8819;-68
2023/08/30 09:17:02;;;;;;;;;6.00;4.33;;;;;;;;5032624;28;14130;-68
2023/08/30 09:19:28;;;;;;;;;3.75;3.75;;;;;;;;5032871;28;12905;-72
2023/08/30 09:21:53;;;;;;;;;2.67;2.67;;;;;;;;5010471;28;9519;-72
2023/08/30 09:24:19;;;;;;;;;3.67;3.00;;;;;;;;5031968;28;12894;-74
2023/08/30 09:26:51;;;;;;;;;3.00;2.67;;;;;;;;5009592;28;9104;-71
2023/08/30 09:29:18;;;;;;;;;5.33;5.33;;;;;;;;5013126;28;32376;-73
2023/08/30 09:31:43;;;;;;;;;3.67;3.67;;;;;;;;5011428;28;31986;-70
2023/08/30 09:34:10;;;;;;;;;6.00;6.00;;;;;;;;5014706;28;31979;-73
2023/08/30 09:36:36;;;;;;;;;4.67;3.67;;;;;;;;5029158;28;24207;-69
2023/08/30 09:39:05;;;;;;;;;2.67;2.67;;;;;;;;5031276;28;26837;-69
2023/08/30 09:41:32;;;;;;;;;3.50;3.00;;;;;;;;5035179;28;8773;-71
2023/08/30 09:43:58;;;;;;;;;4.00;4.00;;;;;;;;5012397;28;32070;-74
2023/08/30 09:46:24;;;;;;;;;2.00;2.00;;;;;;;;5018832;28;31916;-70
2023/08/30 09:48:50;;;;;;;;;2.00;2.00;;;;;;;;5025818;28;32030;-73
2023/08/30 09:51:16;;;;;;;;;3.67;3.67;;;;;;;;5036100;28;11414;-71
2023/08/30 09:53:44;;;;;;;;;4.00;4.00;;;;;;;;5035485;28;26968;-73
2023/08/30 09:56:11;;;;;;;;;3.67;3.67;;;;;;;;5028882;28;50394;-72
2023/08/30 09:58:38;;;;;;;;;4.00;3.00;;;;;;;;5023534;28;51070;-70
2023/08/30 10:01:04;;;;;;;;;2.50;2.50;;;;;;;;5037101;28;11439;-72
2023/08/30 10:03:30;;;;;;;;;2.33;2.00;;;;;;;;5034641;28;9768;-72
2023/08/30 10:05:56;;;;;;;;;2.75;2.75;;;;;;;;5029308;28;38182;-73
2023/08/30 10:08:21;;;;;;;;;2.00;2.00;;;;;;;;5032015;28;10659;-72
2023/08/30 10:10:47;;;;;;;;;4.00;3.00;;;;;;;;5032919;28;8800;-72
2023/08/30 10:13:12;;;;;;;;;6.67;4.00;;;;;;;;5028234;28;9069;-71
2023/08/30 10:15:41;;;;;;;;;3.00;3.00;;;;;;;;5035365;28;9021;-72
2023/08/30 10:18:07;;;;;;;;;0.75;0.25;;;;;;;;5034682;28;8869;-72
2023/08/30 10:20:32;;;;;;;;;5.00;5.00;;;;;;;;5001074;28;51072;-73
2023/08/30 10:22:58;;;;;;;;;2.33;2.00;;;;;;;;5031767;28;28101;-72
2023/08/30 10:25:29;;;;;;;;;6.00;6.00;;;;;;;;5038751;28;8820;-70
2023/08/30 10:27:55;;;;;;;;;5.00;5.00;;;;;;;;5037971;28;11344;-69
2023/08/30 10:30:21;;;;;;;;;5.25;5.00;;;;;;;;5037611;28;8806;-70
2023/08/30 10:32:46;;;;;;;;;4.33;4.33;;;;;;;;5036994;28;8749;-70
2023/08/30 10:35:13;;;;;;;;;3.33;3.33;;;;;;;;5037146;28;11555;-69
2023/08/30 10:37:38;;;;;;;;;3.25;3.25;;;;;;;;5035652;28;9502;-69
2023/08/30 10:40:04;;;;;;;;;4.00;4.00;;;;;;;;5035016;28;8800;-69
2023/08/30 10:42:29;;;;;;;;;5.00;4.67;;;;;;;;5034352;28;8824;-77
2023/08/30 10:44:57;;;;;;;;;4.67;3.67;;;;;;;;5035345;28;8815;-69
2023/08/30 10:47:29;;;;;;;;;4.00;3.00;;;;;;;;5036761;28;8793;-69
2023/08/30 10:49:55;;;;;;;;;3.75;3.00;;;;;;;;5034037;28;9795;-68
2023/08/30 10:52:21;;;;;;;;;2.33;2.00;;;;;;;;5032734;28;8778;-70
2023/08/30 10:54:46;;;;;;;;;4.00;3.00;;;;;;;;5034303;28;12216;-70
2023/08/30 10:57:15;;;;;;;;;4.67;4.67;;;;;;;;5035907;28;8855;-70
2023/08/30 10:59:47;;;;;;;;;10.00;9.67;;;;;;;;5036890;28;8824;-69
2023/08/30 11:02:13;;;;;;;;;4.00;4.00;;;;;;;;5034265;28;9281;-70
2023/08/30 11:04:44;;;;;;;;;6.00;5.00;;;;;;;;5036610;28;8874;-70
2023/08/30 11:07:10;;;;;;;;;4.75;4.75;;;;;;;;5036116;28;8805;-68
2023/08/30 11:09:39;;;;;;;;;4.67;4.33;;;;;;;;5031312;28;8807;-70
2023/08/30 11:12:05;;;;;;;;;5.50;5.00;;;;;;;;5032983;28;9848;-71
2023/08/30 11:14:30;;;;;;;;;6.00;6.00;;;;;;;;5036970;28;8825;-72
2023/08/30 11:16:55;;;;;;;;;5.67;5.00;;;;;;;;5036215;28;8824;-71
2023/08/30 11:19:21;;;;;;;;;7.00;6.00;;;;;;;;5035653;28;8813;-67
2023/08/30 11:21:47;;;;;;;;;6.00;6.00;;;;;;;;5015059;28;9865;-68
2023/08/30 11:24:12;;;;;;;;;6.33;5.00;;;;;;;;5038961;28;8835;-69
2023/08/30 11:26:37;;;;;;;;;3.33;3.33;;;;;;;;5018837;28;8851;-69
2023/08/30 11:29:09;;;;;;;;;6.67;6.00;;;;;;;;5037378;28;8814;-69
2023/08/30 11:31:34;;;;;;;;;5.00;5.00;;;;;;;;5038282;28;8769;-70
2023/08/30 11:34:00;;;;;;;;;4.33;4.33;;;;;;;;5034622;28;8956;-64
2023/08/30 11:36:27;;;;;;;;;5.00;4.67;;;;;;;;5028298;28;8830;-63
2023/08/30 11:38:52;;;;;;;;;18.67;17.67;;;;;;;;5033847;28;8799;-63
2023/08/30 11:41:19;;;;;;;;;3.00;3.00;;;;;;;;5033857;28;9391;-64
2023/08/30 11:43:45;;;;;;;;;5.67;5.67;;;;;;;;5033182;28;9743;-62
2023/08/30 11:46:12;;;;;;;;;5.00;5.00;;;;;;;;5032220;28;8987;-62
2023/08/30 11:48:37;;;;;;;;;6.25;5.75;;;;;;;;5033645;28;8808;-64
2023/08/30 11:51:03;;;;;;;;;5.00;5.00;;;;;;;;5033761;28;8799;-64
2023/08/30 11:53:28;;;;;;;;;6.67;6.67;;;;;;;;5031574;28;8831;-64
2023/08/30 11:55:54;;;;;;;;;22.00;20.50;;;;;;;;5032095;28;8846;-64
2023/08/30 11:58:19;;;;;;;;;6.00;6.00;;;;;;;;5032049;28;8867;-64
2023/08/30 12:00:45;;;;;;;;;6.33;6.00;;;;;;;;5031943;28;8955;-64
2023/08/30 12:03:14;;;;;;;;;4.25;4.25;;;;;;;;5030760;28;8883;-64
2023/08/30 12:05:50;;;;;;;;;6.00;6.00;;;;;;;;5026428;28;8796;-64
2023/08/30 12:08:28;;;;;;;;;4.67;4.33;;;;;;;;5030624;28;8984;-64
2023/08/30 12:10:54;;;;;;;;;3.00;3.00;;;;;;;;5031001;28;8945;-64
2023/08/30 12:13:22;;;;;;;;;6.00;5.00;;;;;;;;5031438;28;8785;-63
2023/08/30 12:15:48;;;;;;;;;4.00;3.67;;;;;;;;5031752;28;9040;-62
2023/08/30 12:18:13;;;;;;;;;6.00;5.33;;;;;;;;5034461;28;9266;-63
2023/08/30 12:20:39;;;;;;;;;7.00;6.00;;;;;;;;5035740;28;8852;-64
2023/08/30 12:23:04;;;;;;;;;6.67;5.67;;;;;;;;5015776;28;9099;-63
2023/08/30 12:25:30;;;;;;;;;4.00;3.67;;;;;;;;5034009;28;8901;-63
2023/08/30 12:27:56;;;;;;;;;5.00;5.00;;;;;;;;5034694;28;8793;-65
2023/08/30 12:30:21;;;;;;;;;4.00;4.00;;;;;;;;5033336;28;9560;-63
2023/08/30 12:32:46;;;;;;;;;3.67;3.67;;;;;;;;5032518;28;8826;-63
2023/08/30 12:35:12;;;;;;;;;4.67;4.67;;;;;;;;5032749;28;9274;-63
2023/08/30 12:37:37;;;;;;;;;4.00;4.00;;;;;;;;5032671;28;8808;-63
2023/08/30 12:40:03;;;;;;;;;6.67;5.00;;;;;;;;5033153;28;9567;-64
2023/08/30 12:42:28;;;;;;;;;9.00;7.00;;;;;;;;5033665;28;8819;-63
2023/08/30 12:44:53;;;;;;;;;6.00;6.00;;;;;;;;5033395;28;8868;-63
2023/08/30 12:47:18;;;;;;;;;5.67;5.67;;;;;;;;5033496;28;8797;-63
2023/08/30 12:49:44;;;;;;;;;6.00;5.00;;;;;;;;5023267;28;8840;-63
2023/08/30 12:52:09;;;;;;;;;12.50;12.00;;;;;;;;5032533;28;8813;-62
2023/08/30 12:54:34;;;;;;;;;6.67;5.67;;;;;;;;5034097;28;8812;-63
2023/08/30 12:56:59;;;;;;;;;5.00;5.00;;;;;;;;5033141;28;8836;-64
2023/08/30 12:59:24;;;;;;;;;4.67;4.67;;;;;;;;5033366;28;8802;-63
2023/08/30 13:01:50;;;;;;;;;5.00;5.00;;;;;;;;5009456;28;8839;-64
2023/08/30 13:04:15;;;;;;;;;6.00;6.00;;;;;;;;5033291;28;8804;-63
2023/08/30 13:06:40;;;;;;;;;10.00;10.00;;;;;;;;5032573;28;8844;-63
2023/08/30 13:09:05;;;;;;;;;8.00;8.00;;;;;;;;5032764;28;9558;-63
2023/08/30 13:11:32;;;;;;;;;6.33;6.00;;;;;;;;5032276;28;8962;-63
2023/08/30 13:13:57;;;;;;;;;6.00;5.33;;;;;;;;5033045;28;8810;-63
2023/08/30 13:16:23;;;;;;;;;6.00;6.00;;;;;;;;5035872;28;9043;-63
2023/08/30 13:18:48;;;;;;;;;4.67;4.00;;;;;;;;5035288;28;8897;-63
2023/08/30 13:21:13;;;;;;;;;5.67;5.00;;;;;;;;5036564;28;8827;-62
2023/08/30 13:23:38;;;;;;;;;6.00;6.00;;;;;;;;5037172;28;9573;-64
2023/08/30 13:26:04;;;;;;;;;6.67;5.00;;;;;;;;5036579;28;8828;-63
2023/08/30 13:28:29;;;;;;;;;6.33;6.00;;;;;;;;5036089;28;8842;-62
2023/08/30 13:30:54;;;;;;;;;7.33;7.33;;;;;;;;5036784;28;8907;-63
2023/08/30 13:33:19;;;;;;;;;5.33;5.00;;;;;;;;5035682;28;8783;-63
2023/08/30 13:35:49;;;;;;;;;7.00;6.00;;;;;;;;5034730;28;8824;-64
2023/08/30 13:38:14;;;;;;;;;5.33;4.67;;;;;;;;5034679;28;8915;-63
2023/08/30 13:40:39;;;;;;;;;7.00;7.00;;;;;;;;5036026;28;9670;-64
2023/08/30 13:43:06;;;;;;;;;5.67;5.67;;;;;;;;5013198;28;8859;-63
2023/08/30 13:45:32;;;;;;;;;5.50;5.00;;;;;;;;5018130;28;8802;-63
2023/08/30 13:47:57;;;;;;;;;5.00;5.00;;;;;;;;5033995;28;8889;-63
2023/08/30 13:50:22;;;;;;;;;9.33;9.33;;;;;;;;5037392;28;8795;-63
2023/08/30 13:52:47;;;;;;;;;5.00;5.00;;;;;;;;5036104;28;9032;-63
2023/08/30 13:55:13;;;;;;;;;3.33;3.00;;;;;;;;5034973;28;8790;-63
2023/08/30 13:57:38;;;;;;;;;6.67;5.67;;;;;;;;5035564;28;8828;-63
2023/08/30 14:00:09;;;;;;;;;5.00;3.67;;;;;;;;5036178;28;8796;-63
2023/08/30 14:02:34;;;;;;;;;5.00;5.00;;;;;;;;5036082;28;8780;-63
2023/08/30 14:05:00;;;;;;;;;3.00;3.00;;;;;;;;5036498;28;9649;-63
2023/08/30 14:07:25;;;;;;;;;4.67;4.67;;;;;;;;5035899;28;9373;-62
2023/08/30 14:09:50;;;;;;;;;4.00;3.33;;;;;;;;5035140;28;8849;-64
2023/08/30 14:14:41;;;;;;;;;4.00;3.00;;;;;;;;5024733;28;36178;-63
2023/08/30 14:17:06;;;;;;;;;3.00;3.00;;;;;;;;5035033;28;9570;-63
2023/08/30 14:19:33;;;;;;;;;4.00;4.00;;;;;;;;5035896;28;8819;-63
2023/08/30 14:21:59;;;;;;;;;4.50;4.00;;;;;;;;5037114;28;8815;-63
2023/08/30 14:24:25;;;;;;;;;7.00;7.00;;;;;;;;5036996;28;8765;-62
2023/08/30 14:26:50;;;;;;;;;5.33;5.00;;;;;;;;5035341;28;8851;-63
2023/08/30 14:29:15;;;;;;;;;3.00;3.00;;;;;;;;5034490;28;9486;-62
2023/08/30 14:31:40;;;;;;;;;3.00;3.00;;;;;;;;5036435;28;8847;-62
2023/08/30 14:34:05;;;;;;;;;4.00;4.00;;;;;;;;5036212;28;8907;-63
2023/08/30 14:36:31;;;;;;;;;5.00;4.00;;;;;;;;5036405;28;8850;-63
2023/08/30 14:38:56;;;;;;;;;5.67;5.00;;;;;;;;5035792;28;8873;-63
2023/08/30 14:41:21;;;;;;;;;6.00;5.00;;;;;;;;5011820;28;8840;-63
2023/08/30 14:43:46;;;;;;;;;4.33;4.33;;;;;;;;5035529;28;8809;-63
2023/08/30 14:46:12;;;;;;;;;4.00;4.00;;;;;;;;5035118;28;8906;-62
2023/08/30 14:48:37;;;;;;;;;5.67;5.00;;;;;;;;5019580;28;8905;-62
2023/08/30 14:51:04;;;;;;;;;4.33;4.33;;;;;;;;5036064;28;8974;-63